Time;durP1;ratioP1;P1;durP2;ratioP2;P2;SDS_P1;SDS_P2;PMS_P1;PMS_P2;Temp;Humidity;BMP_temperature;BMP_pressure;BME280_temperature;BME280_humidity;BME280_pressure;Samples;Min_cycle;Max_cycle;Signal;HPM_P1;HPM_P2
2023/09/06 00:01:22;;;;;;;12.10;9.57;;;16.90;99.90;;;;;;5033517;28;20281;-50
2023/09/06 00:03:48;;;;;;;11.13;9.33;;;16.90;99.90;;;;;;5033879;28;20197;-50
2023/09/06 00:06:14;;;;;;;11.17;9.43;;;16.90;99.90;;;;;;5032702;28;20191;-49
2023/09/06 00:08:39;;;;;;;11.57;9.73;;;16.90;99.90;;;;;;5025728;28;20235;-49
2023/09/06 00:11:05;;;;;;;13.53;8.77;;;16.80;99.90;;;;;;5031942;28;20768;-49
2023/09/06 00:13:32;;;;;;;10.77;9.23;;;16.80;99.90;;;;;;5034037;28;20321;-49
2023/09/06 00:15:58;;;;;;;12.30;8.90;;;16.70;99.90;;;;;;5033930;28;20510;-49
2023/09/06 00:18:24;;;;;;;12.07;9.57;;;16.70;99.90;;;;;;5034568;28;20772;-51
2023/09/06 00:20:49;;;;;;;12.07;10.07;;;16.60;99.90;;;;;;5025856;28;20487;-49
2023/09/06 00:23:17;;;;;;;11.47;9.50;;;16.60;99.90;;;;;;5034648;28;20527;-51
2023/09/06 00:25:43;;;;;;;12.23;9.60;;;16.60;99.90;;;;;;5033417;28;20763;-49
2023/09/06 00:28:09;;;;;;;15.90;9.80;;;16.60;99.90;;;;;;5034502;28;20445;-49
2023/09/06 00:30:35;;;;;;;10.37;9.37;;;16.60;99.90;;;;;;5033288;28;20877;-49
2023/09/06 00:33:05;;;;;;;10.30;8.87;;;16.60;99.90;;;;;;5032934;28;20190;-49
2023/09/06 00:35:30;;;;;;;11.30;8.97;;;16.60;99.90;;;;;;5032922;28;20431;-49
2023/09/06 00:37:56;;;;;;;10.50;9.40;;;16.60;99.90;;;;;;5033493;28;20433;-49
2023/09/06 00:40:22;;;;;;;10.50;9.50;;;16.60;99.90;;;;;;5033385;28;20184;-49
2023/09/06 00:42:50;;;;;;;12.10;8.30;;;16.60;99.90;;;;;;5033292;28;20189;-49
2023/09/06 00:45:17;;;;;;;10.90;9.70;;;16.60;99.90;;;;;;5034419;28;20486;-52
2023/09/06 00:47:43;;;;;;;12.77;9.23;;;16.60;99.90;;;;;;5032816;28;20971;-51
2023/09/06 00:50:14;;;;;;;11.20;9.50;;;16.60;99.90;;;;;;5032296;28;20468;-49
2023/09/06 00:52:41;;;;;;;12.53;9.47;;;16.60;99.90;;;;;;5031982;28;20196;-50
2023/09/06 00:55:08;;;;;;;10.90;9.03;;;16.60;99.90;;;;;;5033351;28;20566;-48
2023/09/06 00:57:34;;;;;;;13.60;10.13;;;16.50;99.90;;;;;;5032965;28;20776;-49
2023/09/06 01:00:00;;;;;;;13.70;9.43;;;16.50;99.90;;;;;;5032194;28;20472;-49
2023/09/06 01:02:26;;;;;;;10.83;8.63;;;16.50;99.90;;;;;;5034278;28;20946;-50
2023/09/06 01:04:53;;;;;;;12.20;8.70;;;16.50;99.90;;;;;;5032537;28;20253;-50
2023/09/06 01:07:20;;;;;;;11.20;9.50;;;16.50;99.90;;;;;;5029028;28;20831;-49
2023/09/06 01:09:46;;;;;;;11.67;9.70;;;16.40;99.90;;;;;;5032721;28;20436;-50
2023/09/06 01:12:15;;;;;;;9.90;8.90;;;16.40;99.90;;;;;;5032493;28;20807;-50
2023/09/06 01:14:41;;;;;;;10.77;8.57;;;16.30;99.90;;;;;;5032051;28;20181;-50
2023/09/06 01:17:08;;;;;;;10.50;8.50;;;16.30;99.90;;;;;;5032892;28;20436;-49
2023/09/06 01:19:39;;;;;;;10.80;9.57;;;16.30;99.90;;;;;;5037807;28;20552;-49
2023/09/06 01:22:16;;;;;;;9.80;8.80;;;16.20;99.90;;;;;;5031726;28;20527;-50
2023/09/06 01:24:42;;;;;;;11.90;8.93;;;16.30;99.90;;;;;;5033248;28;20552;-49
2023/09/06 01:27:09;;;;;;;9.70;8.70;;;16.20;99.90;;;;;;5031874;28;20449;-49
2023/09/06 01:29:35;;;;;;;11.67;9.17;;;16.30;99.90;;;;;;5032402;28;20432;-49
2023/09/06 01:32:00;;;;;;;11.63;9.37;;;16.30;99.90;;;;;;5032235;28;20450;-50
2023/09/06 01:34:26;;;;;;;13.20;10.50;;;16.30;99.90;;;;;;5033249;28;20228;-48
2023/09/06 01:36:52;;;;;;;13.10;9.40;;;16.30;99.90;;;;;;5033583;28;20232;-48
2023/09/06 01:39:18;;;;;;;10.87;9.27;;;16.30;99.90;;;;;;5032013;28;20235;-49
2023/09/06 01:41:43;;;;;;;10.30;9.20;;;16.20;99.90;;;;;;5032749;28;20424;-48
2023/09/06 01:44:09;;;;;;;9.97;8.97;;;16.10;99.90;;;;;;5031381;28;20201;-48
2023/09/06 01:46:34;;;;;;;11.23;10.03;;;16.10;99.90;;;;;;5030809;28;20185;-49
2023/09/06 01:49:00;;;;;;;11.43;10.30;;;16.10;99.90;;;;;;5029714;28;20201;-50
2023/09/06 01:51:26;;;;;;;14.30;10.57;;;16.10;99.90;;;;;;5030083;28;20198;-49
2023/09/06 01:53:51;;;;;;;12.80;10.67;;;16.10;99.90;;;;;;5030346;28;20183;-48
2023/09/06 01:56:17;;;;;;;14.70;11.20;;;16.10;99.90;;;;;;5031055;28;20195;-48
2023/09/06 01:58:42;;;;;;;15.93;11.10;;;16.10;99.90;;;;;;5031398;28;20273;-49
2023/09/06 02:01:09;;;;;;;13.07;11.77;;;16.10;99.90;;;;;;5031016;28;20194;-48
2023/09/06 02:03:35;;;;;;;13.00;11.50;;;16.10;99.90;;;;;;5030614;28;20189;-48
2023/09/06 02:06:01;;;;;;;14.13;11.20;;;16.10;99.90;;;;;;5030513;28;20843;-49
2023/09/06 02:08:27;;;;;;;12.13;10.30;;;16.10;99.90;;;;;;5029593;28;20448;-49
2023/09/06 02:10:52;;;;;;;11.57;10.37;;;16.10;99.90;;;;;;5028267;28;20283;-49
2023/09/06 02:13:18;;;;;;;15.33;11.13;;;16.10;99.90;;;;;;5029860;28;20191;-48
2023/09/06 02:15:43;;;;;;;11.23;10.03;;;16.10;99.90;;;;;;5032390;28;20188;-49
2023/09/06 02:18:15;;;;;;;10.67;9.30;;;16.00;99.90;;;;;;5030450;28;20534;-49
2023/09/06 02:20:44;;;;;;;13.90;10.23;;;15.90;99.90;;;;;;5030908;28;20198;-49
2023/09/06 02:23:10;;;;;;;11.67;9.90;;;15.90;99.90;;;;;;5030521;28;20602;-50
2023/09/06 02:25:36;;;;;;;12.80;9.70;;;15.80;99.90;;;;;;5032580;28;21033;-48
2023/09/06 02:28:03;;;;;;;12.03;10.60;;;15.80;99.90;;;;;;5030271;28;20191;-49
2023/09/06 02:30:29;;;;;;;11.97;9.83;;;15.70;99.90;;;;;;5031633;28;20188;-48
2023/09/06 02:32:55;;;;;;;11.20;9.47;;;15.70;99.90;;;;;;5030118;28;20969;-49
2023/09/06 02:35:21;;;;;;;12.73;10.43;;;15.60;99.90;;;;;;5027746;28;20179;-49
2023/09/06 02:37:46;;;;;;;11.30;10.10;;;15.70;99.90;;;;;;5028890;28;20471;-48
2023/09/06 02:40:13;;;;;;;12.43;9.60;;;15.60;99.90;;;;;;5029718;28;20246;-49
2023/09/06 02:42:40;;;;;;;12.40;10.00;;;15.60;99.90;;;;;;5030484;28;20193;-48
2023/09/06 02:45:09;;;;;;;12.57;10.00;;;15.60;99.90;;;;;;5030963;28;20474;-49
2023/09/06 02:47:38;;;;;;;12.97;11.07;;;15.60;99.90;;;;;;5030285;28;20943;-48
2023/09/06 02:50:05;;;;;;;12.57;10.30;;;15.60;99.90;;;;;;5030553;28;20507;-48
2023/09/06 02:52:35;;;;;;;10.60;9.60;;;15.60;99.90;;;;;;5031138;28;20527;-48
2023/09/06 02:55:04;;;;;;;11.77;10.50;;;15.50;99.90;;;;;;5028531;28;20435;-51
2023/09/06 02:57:31;;;;;;;12.70;9.93;;;15.60;99.90;;;;;;5033254;28;20495;-48
2023/09/06 02:59:56;;;;;;;12.07;9.63;;;15.50;99.90;;;;;;5034333;28;20524;-48
2023/09/06 03:02:22;;;;;;;11.70;9.90;;;15.50;99.90;;;;;;5032180;28;20526;-49
2023/09/06 03:04:54;;;;;;;11.13;9.90;;;15.40;99.90;;;;;;5034235;28;20316;-48
2023/09/06 03:07:21;;;;;;;11.30;9.53;;;15.40;99.90;;;;;;5035790;28;20430;-48
2023/09/06 03:09:49;;;;;;;10.97;9.03;;;15.40;99.90;;;;;;5034161;28;20787;-48
2023/09/06 03:12:16;;;;;;;11.30;8.70;;;15.30;99.90;;;;;;5035402;28;20755;-48
2023/09/06 03:14:44;;;;;;;12.30;8.40;;;15.20;99.90;;;;;;5035433;28;20943;-48
2023/09/06 03:17:13;;;;;;;10.30;9.30;;;15.20;99.90;;;;;;5035757;28;20442;-48
2023/09/06 03:19:45;;;;;;;10.33;9.33;;;15.10;99.90;;;;;;5036813;28;20475;-49
2023/09/06 03:22:12;;;;;;;18.30;9.37;;;15.10;99.90;;;;;;5035812;28;20966;-47
2023/09/06 03:24:40;;;;;;;10.77;9.70;;;15.10;99.90;;;;;;5034541;28;20485;-48
2023/09/06 03:27:07;;;;;;;10.50;9.43;;;15.10;99.90;;;;;;5035138;28;20540;-49
2023/09/06 03:29:37;;;;;;;16.13;10.53;;;15.10;99.90;;;;;;5035318;28;20428;-48
2023/09/06 03:32:09;;;;;;;10.10;9.10;;;15.10;99.90;;;;;;5035791;28;20440;-49
2023/09/06 03:34:35;;;;;;;11.70;8.90;;;15.10;99.90;;;;;;5035491;28;20426;-48
2023/09/06 03:37:05;;;;;;;14.33;9.30;;;15.10;99.90;;;;;;5035235;28;20552;-48
2023/09/06 03:39:37;;;;;;;10.50;9.40;;;15.00;99.90;;;;;;5035726;28;20438;-48
2023/09/06 03:42:08;;;;;;;10.17;8.83;;;15.00;99.90;;;;;;5033648;28;20457;-48
2023/09/06 03:44:34;;;;;;;12.73;9.70;;;15.00;99.90;;;;;;5034026;28;20536;-48
2023/09/06 03:47:00;;;;;;;11.90;9.80;;;15.00;99.90;;;;;;5035755;28;20541;-51
2023/09/06 03:49:26;;;;;;;11.73;8.67;;;14.90;99.90;;;;;;5032919;28;20569;-49
2023/09/06 03:51:52;;;;;;;11.70;9.63;;;14.90;99.90;;;;;;5034083;28;20188;-47
2023/09/06 03:54:18;;;;;;;10.33;9.20;;;14.90;99.90;;;;;;5033475;28;20442;-49
2023/09/06 03:56:44;;;;;;;11.70;9.10;;;14.90;99.90;;;;;;5034307;28;20270;-48
2023/09/06 03:59:11;;;;;;;10.00;8.97;;;14.90;99.90;;;;;;5034483;28;20558;-48
2023/09/06 04:01:37;;;;;;;9.60;8.70;;;14.80;99.90;;;;;;5032815;28;20465;-48
2023/09/06 04:04:04;;;;;;;11.00;9.90;;;14.80;99.90;;;;;;5033125;28;20434;-49
2023/09/06 04:06:30;;;;;;;12.50;9.93;;;14.80;99.90;;;;;;5029534;28;20192;-48
2023/09/06 04:08:55;;;;;;;11.67;9.80;;;14.80;99.90;;;;;;5034752;28;20811;-49
2023/09/06 04:11:21;;;;;;;12.07;9.80;;;14.90;99.90;;;;;;5033637;28;20196;-48
2023/09/06 04:13:47;;;;;;;10.80;9.00;;;14.90;99.90;;;;;;5031658;28;20176;-47
2023/09/06 04:16:14;;;;;;;13.10;8.93;;;14.80;99.90;;;;;;5032747;28;20201;-49
2023/09/06 04:18:41;;;;;;;11.10;9.10;;;14.90;99.90;;;;;;5033052;28;20189;-49
2023/09/06 04:21:10;;;;;;;12.67;10.17;;;14.90;99.90;;;;;;5027721;28;20820;-48
2023/09/06 04:23:39;;;;;;;11.77;9.67;;;14.80;99.90;;;;;;5033445;28;20434;-48
2023/09/06 04:26:05;;;;;;;11.33;9.60;;;14.80;99.90;;;;;;5034483;28;20531;-47
2023/09/06 04:28:30;;;;;;;12.00;9.40;;;14.80;99.90;;;;;;5033161;28;20958;-49
2023/09/06 04:30:57;;;;;;;10.40;9.40;;;14.80;99.90;;;;;;5033117;28;20190;-47
2023/09/06 04:33:24;;;;;;;13.80;9.63;;;14.80;99.90;;;;;;5033243;28;20587;-48
2023/09/06 04:35:50;;;;;;;10.13;9.13;;;14.80;99.90;;;;;;5033894;28;20484;-48
2023/09/06 04:38:18;;;;;;;14.53;9.07;;;14.80;99.90;;;;;;5034236;28;20539;-48
2023/09/06 04:40:45;;;;;;;11.57;10.37;;;14.80;99.90;;;;;;5033661;28;20445;-48
2023/09/06 04:43:12;;;;;;;11.60;10.40;;;14.80;99.90;;;;;;5036756;28;20476;-48
2023/09/06 04:45:37;;;;;;;11.87;10.40;;;14.80;99.90;;;;;;5033429;28;20470;-49
2023/09/06 04:48:10;;;;;;;12.67;10.73;;;14.80;99.90;;;;;;5032640;28;20922;-48
2023/09/06 04:50:40;;;;;;;10.87;9.83;;;14.90;99.90;;;;;;5033849;28;20185;-48
2023/09/06 04:53:09;;;;;;;13.97;9.33;;;14.90;99.90;;;;;;5032922;28;20451;-48
2023/09/06 04:55:36;;;;;;;10.60;9.50;;;14.90;99.90;;;;;;5032971;28;20464;-48
2023/09/06 04:58:02;;;;;;;13.73;9.40;;;14.90;99.90;;;;;;5034131;28;20435;-48
2023/09/06 05:00:33;;;;;;;12.87;10.20;;;14.80;99.90;;;;;;5033274;28;20443;-48
2023/09/06 05:03:00;;;;;;;12.33;9.90;;;14.80;99.90;;;;;;5031779;28;20445;-48
2023/09/06 05:05:26;;;;;;;11.07;9.90;;;14.70;99.90;;;;;;5031345;28;20481;-48
2023/09/06 05:07:52;;;;;;;9.90;8.90;;;14.70;99.90;;;;;;5033388;28;20519;-47
2023/09/06 05:10:18;;;;;;;10.90;9.77;;;14.70;99.90;;;;;;5031271;28;20530;-48
2023/09/06 05:12:43;;;;;;;13.27;9.53;;;14.80;99.90;;;;;;5030779;28;20191;-48
2023/09/06 05:15:12;;;;;;;11.50;9.90;;;14.80;99.90;;;;;;5030637;28;20511;-48
2023/09/06 05:17:38;;;;;;;10.53;9.00;;;14.80;99.90;;;;;;5031786;28;20191;-48
2023/09/06 05:20:28;;;;;;;10.07;8.90;;;14.80;99.90;;;;;;5029981;28;20434;-48
2023/09/06 05:22:59;;;;;;;11.67;8.20;;;14.80;99.90;;;;;;5031882;28;20519;-48
2023/09/06 05:25:25;;;;;;;16.67;9.67;;;14.90;99.90;;;;;;5032871;28;20481;-48
2023/09/06 05:27:56;;;;;;;11.60;9.57;;;14.80;99.90;;;;;;5033243;28;20423;-49
2023/09/06 05:30:21;;;;;;;13.50;10.50;;;14.90;99.90;;;;;;5031396;28;20429;-49
2023/09/06 05:32:47;;;;;;;11.00;9.27;;;14.90;99.90;;;;;;5033804;28;20964;-48
2023/09/06 05:35:13;;;;;;;11.63;10.13;;;15.00;99.90;;;;;;5029257;28;20183;-47
2023/09/06 05:37:39;;;;;;;13.60;10.50;;;15.10;99.90;;;;;;5033325;28;20282;-48
2023/09/06 05:40:06;;;;;;;10.93;9.80;;;15.10;99.90;;;;;;5032230;28;20529;-50
2023/09/06 05:42:32;;;;;;;13.00;11.00;;;15.20;99.90;;;;;;5032492;28;20180;-49
2023/09/06 05:44:57;;;;;;;11.70;9.90;;;15.20;99.90;;;;;;5029859;28;20827;-49
2023/09/06 05:47:23;;;;;;;13.83;11.20;;;15.30;99.90;;;;;;5032871;28;20237;-49
2023/09/06 05:49:52;;;;;;;17.30;10.70;;;15.30;99.90;;;;;;5032863;28;20191;-49
2023/09/06 05:52:18;;;;;;;14.27;11.17;;;15.40;99.90;;;;;;5031706;28;20193;-49
2023/09/06 05:54:44;;;;;;;13.13;11.03;;;15.40;99.90;;;;;;5033398;28;20435;-49
2023/09/06 05:57:10;;;;;;;12.70;11.20;;;15.50;99.90;;;;;;5032689;28;20187;-50
2023/09/06 05:59:36;;;;;;;12.17;10.87;;;15.60;99.90;;;;;;5032512;28;20517;-49
2023/09/06 06:02:02;;;;;;;13.17;11.63;;;15.70;99.90;;;;;;5031183;28;20184;-49
2023/09/06 06:04:28;;;;;;;12.37;11.10;;;15.80;99.90;;;;;;5032725;28;20482;-50
2023/09/06 06:06:54;;;;;;;14.03;11.77;;;16.00;99.90;;;;;;5032464;28;20192;-50
2023/09/06 06:09:21;;;;;;;18.37;13.40;;;16.20;99.90;;;;;;5032439;28;20192;-49
2023/09/06 06:11:47;;;;;;;16.70;12.00;;;16.50;99.90;;;;;;5032756;28;20427;-49
2023/09/06 06:14:13;;;;;;;16.83;13.97;;;16.80;99.90;;;;;;5032460;28;21053;-50
2023/09/06 06:16:39;;;;;;;17.50;13.47;;;17.10;99.90;;;;;;5032202;28;20276;-50
2023/09/06 06:19:04;;;;;;;19.30;12.40;;;17.40;99.90;;;;;;5031502;28;20531;-50
2023/09/06 06:21:31;;;;;;;13.80;11.20;;;17.60;99.90;;;;;;5032762;28;20284;-50
2023/09/06 06:23:57;;;;;;;15.23;10.77;;;17.90;99.90;;;;;;5032053;28;20197;-49
2023/09/06 06:26:23;;;;;;;19.33;11.60;;;18.20;99.90;;;;;;5032577;28;20764;-50
2023/09/06 06:28:49;;;;;;;12.27;9.97;;;18.40;99.90;;;;;;5033531;28;20434;-50
2023/09/06 06:31:15;;;;;;;14.03;10.47;;;18.70;99.90;;;;;;5034186;28;20186;-51
2023/09/06 06:33:42;;;;;;;13.93;9.70;;;18.90;99.90;;;;;;5036673;28;20803;-50
2023/09/06 06:36:08;;;;;;;16.40;10.17;;;19.10;99.90;;;;;;5034971;28;20187;-51
2023/09/06 06:38:33;;;;;;;12.50;9.93;;;19.40;99.90;;;;;;5041694;28;20436;-50
2023/09/06 06:40:59;;;;;;;11.03;8.77;;;19.60;99.90;;;;;;5036386;28;20247;-50
2023/09/06 06:43:25;;;;;;;17.90;9.53;;;19.80;99.90;;;;;;5033954;28;20269;-50
2023/09/06 06:45:53;;;;;;;16.10;8.60;;;20.10;82.20;;;;;;5036659;28;20222;-50
2023/09/06 06:48:19;;;;;;;15.67;8.63;;;20.30;1.00;;;;;;5036362;28;20426;-51
2023/09/06 06:50:45;;;;;;;14.13;8.73;;;20.60;1.00;;;;;;5036674;28;20434;-51
2023/09/06 06:53:11;;;;;;;12.03;8.40;;;20.90;99.90;;;;;;5036275;28;20425;-50
2023/09/06 06:55:37;;;;;;;11.47;8.27;;;21.20;99.90;;;;;;5036163;28;20702;-50
2023/09/06 06:58:03;;;;;;;11.83;7.80;;;21.40;1.00;;;;;;5036424;28;20426;-50
2023/09/06 07:00:32;;;;;;;9.77;6.73;;;21.70;27.10;;;;;;5035427;28;20484;-50
2023/09/06 07:02:58;;;;;;;14.87;7.30;;;22.00;99.90;;;;;;5034350;28;20851;-50
2023/09/06 07:05:23;;;;;;;11.00;7.30;;;22.30;1.00;;;;;;5035984;28;20584;-50
2023/09/06 07:07:49;;;;;;;12.13;7.47;;;22.60;99.90;;;;;;5036199;28;20428;-51
2023/09/06 07:10:16;;;;;;;10.30;6.90;;;22.90;99.90;;;;;;5037524;28;20194;-48
2023/09/06 07:12:42;;;;;;;16.03;7.30;;;23.10;99.90;;;;;;5037484;28;20198;-50
2023/09/06 07:15:08;;;;;;;14.80;7.10;;;23.40;8.70;;;;;;5035845;28;20426;-50
2023/09/06 07:17:33;;;;;;;13.60;7.27;;;23.60;1.00;;;;;;5035931;28;20290;-50
2023/09/06 07:19:59;;;;;;;12.40;6.70;;;23.90;1.00;;;;;;5036427;28;20184;-49
2023/09/06 07:22:25;;;;;;;15.60;7.67;;;24.30;1.00;;;;;;5035811;28;21088;-50
2023/09/06 07:24:51;;;;;;;11.47;6.40;;;24.60;1.00;;;;;;5035755;28;20218;-50
2023/09/06 07:27:16;;;;;;;9.57;6.37;;;24.90;1.00;;;;;;5035654;28;20812;-50
2023/09/06 07:29:42;;;;;;;12.37;5.27;;;25.10;1.00;;;;;;5036183;28;20257;-51
2023/09/06 07:32:08;;;;;;;7.40;5.30;;;25.40;1.00;;;;;;5035195;28;20190;-48
2023/09/06 07:34:33;;;;;;;11.77;5.57;;;25.70;1.00;;;;;;5034957;28;20179;-48
2023/09/06 07:36:59;;;;;;;19.73;6.60;;;26.00;1.00;;;;;;5035840;28;20199;-48
2023/09/06 07:39:24;;;;;;;12.20;5.60;;;26.30;1.00;;;;;;5035733;28;20181;-48
2023/09/06 07:41:54;;;;;;;13.43;5.60;;;26.60;1.00;;;;;;5034342;28;20179;-48
2023/09/06 07:44:19;;;;;;;6.27;5.23;;;26.90;1.00;;;;;;5035213;28;20218;-48
2023/09/06 07:46:48;;;;;;;14.67;5.80;;;27.10;1.00;;;;;;5035347;28;20433;-48
2023/09/06 07:49:15;;;;;;;9.60;6.10;;;27.20;1.00;;;;;;5035246;28;20190;-48
2023/09/06 07:51:41;;;;;;;7.10;5.70;;;27.40;1.00;;;;;;5035493;28;20429;-48
2023/09/06 07:54:07;;;;;;;14.77;5.40;;;27.60;1.00;;;;;;5035243;28;20426;-48
2023/09/06 07:56:33;;;;;;;11.03;5.70;;;27.90;1.00;;;;;;5034778;28;20612;-48
2023/09/06 07:58:58;;;;;;;11.13;5.20;;;28.20;1.00;;;;;;5035125;28;20438;-48
2023/09/06 08:01:24;;;;;;;10.90;5.50;;;28.50;1.00;;;;;;5031650;28;20180;-48
2023/09/06 08:03:49;;;;;;;12.80;6.07;;;28.60;1.00;;;;;;5034863;28;20176;-48
2023/09/06 08:06:15;;;;;;;12.93;6.10;;;28.90;1.00;;;;;;5041222;28;20215;-49
2023/09/06 08:08:41;;;;;;;12.50;5.70;;;29.10;1.00;;;;;;5038756;28;20188;-49
2023/09/06 08:11:06;;;;;;;24.40;5.80;;;29.10;1.00;;;;;;5035318;28;20187;-48
2023/09/06 08:13:32;;;;;;;12.43;5.13;;;29.30;1.00;;;;;;5037662;28;20628;-48
2023/09/06 08:15:57;;;;;;;20.27;5.27;;;29.50;1.00;;;;;;5036490;28;20568;-48
2023/09/06 08:18:23;;;;;;;20.73;6.00;;;29.70;1.00;;;;;;5047619;28;20231;-48
2023/09/06 08:20:49;;;;;;;12.23;5.47;;;29.80;1.00;;;;;;5035812;28;20191;-49
2023/09/06 08:23:14;;;;;;;9.67;5.00;;;29.80;1.00;;;;;;5036571;28;20588;-49
2023/09/06 08:25:40;;;;;;;9.90;4.70;;;29.90;1.00;;;;;;5033745;28;20207;-49
2023/09/06 08:28:06;;;;;;;11.27;4.27;;;30.20;1.00;;;;;;5034342;28;20186;-49
2023/09/06 08:30:31;;;;;;;10.87;4.50;;;30.30;1.00;;;;;;5034283;28;20180;-49
2023/09/06 08:32:57;;;;;;;6.90;3.90;;;30.70;1.00;;;;;;5034171;28;20271;-49
2023/09/06 08:35:27;;;;;;;9.20;3.67;;;31.00;1.00;;;;;;5034502;28;20201;-49
2023/09/06 08:37:53;;;;;;;9.77;4.03;;;31.20;1.00;;;;;;5034433;28;20226;-49
2023/09/06 08:40:20;;;;;;;7.03;3.87;;;31.40;1.00;;;;;;5033134;28;20430;-49
2023/09/06 08:42:46;;;;;;;9.40;2.93;;;31.60;1.00;;;;;;5033985;28;20192;-49
2023/09/06 08:45:13;;;;;;;6.47;3.13;;;31.50;1.00;;;;;;5033747;28;20978;-49
2023/09/06 08:47:39;;;;;;;6.20;2.93;;;31.70;1.00;;;;;;5027592;28;20781;-49
2023/09/06 08:50:09;;;;;;;7.90;3.00;;;31.90;1.00;;;;;;5034388;28;20445;-49
2023/09/06 08:52:40;;;;;;;4.23;3.20;;;32.00;1.00;;;;;;5034596;28;20442;-49
2023/09/06 08:55:06;;;;;;;5.93;4.13;;;32.10;1.00;;;;;;5034326;28;20423;-49
2023/09/06 08:57:32;;;;;;;5.40;3.00;;;32.00;1.00;;;;;;5033916;28;20469;-49
2023/09/06 08:59:58;;;;;;;4.20;2.63;;;32.10;1.00;;;;;;5028531;28;20422;-49
2023/09/06 09:02:24;;;;;;;3.50;2.40;;;32.20;1.00;;;;;;5036262;28;20517;-50
2023/09/06 09:04:49;;;;;;;6.73;2.60;;;32.00;1.00;;;;;;5038924;28;20612;-50
2023/09/06 09:07:18;;;;;;;5.70;2.63;;;32.10;1.00;;;;;;5039020;28;20187;-50
2023/09/06 09:10:02;;;;;;;4.27;2.80;;;32.10;1.00;;;;;;5034565;28;20219;-50
2023/09/06 09:12:29;;;;;;;4.87;3.00;;;32.10;1.00;;;;;;5033721;28;20426;-50
2023/09/06 09:14:56;;;;;;;4.23;2.47;;;32.10;1.00;;;;;;5026131;28;20492;-49
2023/09/06 09:17:24;;;;;;;5.77;3.40;;;32.10;1.00;;;;;;5033846;28;20437;-50
2023/09/06 09:19:55;;;;;;;5.40;3.50;;;32.00;1.00;;;;;;5033388;28;20434;-50
2023/09/06 09:22:22;;;;;;;6.97;3.30;;;31.80;1.00;;;;;;5033276;28;20537;-50
2023/09/06 09:24:47;;;;;;;8.07;3.50;;;31.50;99.90;;;;;;5032459;28;20468;-50
2023/09/06 09:27:13;;;;;;;8.00;3.47;;;31.30;1.00;;;;;;5032463;28;20501;-49
2023/09/06 09:29:39;;;;;;;7.07;3.73;;;30.90;1.00;;;;;;5033039;28;20183;-49
2023/09/06 09:32:05;;;;;;;13.70;3.57;;;30.60;1.00;;;;;;5032680;28;20518;-49
2023/09/06 09:34:31;;;;;;;8.70;3.17;;;30.30;1.00;;;;;;5033537;28;20547;-50
2023/09/06 09:36:57;;;;;;;9.13;3.40;;;30.00;1.00;;;;;;5032550;28;20449;-49
2023/09/06 09:39:26;;;;;;;11.17;3.73;;;29.70;1.00;;;;;;5033766;28;20439;-49
2023/09/06 09:41:56;;;;;;;5.87;3.13;;;29.50;1.00;;;;;;5033343;28;20190;-49
2023/09/06 09:44:22;;;;;;;5.33;2.63;;;29.30;1.00;;;;;;5032928;28;20461;-50
2023/09/06 09:46:48;;;;;;;3.27;2.37;;;29.10;1.00;;;;;;5032912;28;20976;-50
2023/09/06 09:49:17;;;;;;;4.50;2.40;;;28.80;1.00;;;;;;5032554;28;20445;-50
2023/09/06 09:51:42;;;;;;;4.17;2.20;;;28.70;1.00;;;;;;5032793;28;20791;-49
2023/09/06 09:54:13;;;;;;;3.10;1.90;;;28.60;1.00;;;;;;5033508;28;20441;-49
2023/09/06 09:56:44;;;;;;;3.70;1.80;;;28.60;1.00;;;;;;5025732;28;20183;-49
2023/09/06 09:59:10;;;;;;;4.80;1.67;;;28.60;1.00;;;;;;5033084;28;20469;-48
2023/09/06 10:01:38;;;;;;;3.50;2.07;;;28.50;99.90;;;;;;5033224;28;20441;-48
2023/09/06 10:04:07;;;;;;;4.60;2.13;;;28.50;1.00;;;;;;5033708;28;20796;-48
2023/09/06 10:06:34;;;;;;;2.17;1.67;;;28.50;99.90;;;;;;5037077;28;20442;-48
2023/09/06 10:09:01;;;;;;;4.07;2.60;;;28.60;1.00;;;;;;5037402;28;20785;-48
2023/09/06 10:11:29;;;;;;;6.80;1.97;;;28.70;1.00;;;;;;5037275;28;20433;-48
2023/09/06 10:13:57;;;;;;;2.33;1.80;;;28.90;99.90;;;;;;5037136;28;20434;-48
2023/09/06 10:16:23;;;;;;;5.00;2.47;;;28.90;99.90;;;;;;5037137;28;20442;-48
2023/09/06 10:18:49;;;;;;;5.10;2.10;;;29.10;99.90;;;;;;5037118;28;20421;-48
2023/09/06 10:21:15;;;;;;;3.40;2.27;;;29.30;99.90;;;;;;5037241;28;20476;-48
2023/09/06 10:23:42;;;;;;;1.93;1.83;;;29.60;99.90;;;;;;5036882;28;20635;-49
2023/09/06 10:26:08;;;;;;;3.37;1.80;;;29.90;99.90;;;;;;5029248;28;20488;-48
2023/09/06 10:28:34;;;;;;;2.27;1.70;;;30.10;99.90;;;;;;5037288;28;20428;-48
2023/09/06 10:31:07;;;;;;;4.40;1.93;;;30.40;99.90;;;;;;5036762;28;20891;-48
2023/09/06 10:33:35;;;;;;;5.53;1.90;;;30.60;99.90;;;;;;5037119;28;20454;-48
2023/09/06 10:36:27;;;;;;;3.87;1.77;;;30.80;99.90;;;;;;5036817;28;20430;-48
2023/09/06 10:38:54;;;;;;;4.40;1.63;;;31.40;99.90;;;;;;5034474;28;20433;-48
2023/09/06 10:41:21;;;;;;;1.97;1.70;;;31.80;99.90;;;;;;5036384;28;20532;-49
2023/09/06 10:43:58;;;;;;;2.73;1.63;;;32.40;99.90;;;;;;5036753;28;20495;-48
2023/09/06 10:46:28;;;;;;;3.07;1.70;;;33.00;99.90;;;;;;5036586;28;20465;-48
2023/09/06 10:49:13;;;;;;;2.30;1.70;;;33.50;99.90;;;;;;5036938;28;20424;-47
2023/09/06 10:52:03;;;;;;;4.10;1.47;;;34.00;99.90;;;;;;5036803;28;20831;-49
2023/09/06 10:54:34;;;;;;;7.07;2.00;;;34.50;99.90;;;;;;5036642;28;20436;-48
2023/09/06 10:57:18;;;;;;;2.73;1.40;;;35.00;99.90;;;;;;5036467;28;20473;-48
2023/09/06 10:59:55;;;;;;;2.27;1.60;;;35.40;99.90;;;;;;5036465;28;20907;-49
2023/09/06 11:02:27;;;;;;;1.50;1.10;;;35.70;99.90;;;;;;5036157;28;20426;-49
2023/09/06 11:05:08;;;;;;;6.80;1.80;;;36.10;99.90;;;;;;5036178;28;20485;-49
2023/09/06 11:07:44;;;;;;;1.60;1.50;;;36.30;99.90;;;;;;5036092;28;20465;-49
2023/09/06 11:10:11;;;;;;;3.00;1.40;;;36.60;99.90;;;;;;5034371;28;20437;-51
2023/09/06 11:12:38;;;;;;;2.23;1.30;;;36.90;99.90;;;;;;5035159;28;20466;-49
2023/09/06 11:15:05;;;;;;;4.27;1.40;;;37.10;99.90;;;;;;5034898;28;20460;-51
2023/09/06 11:17:31;;;;;;;7.80;1.70;;;37.20;99.90;;;;;;5032136;28;20426;-50
2023/09/06 11:20:14;;;;;;;4.03;1.70;;;37.40;99.90;;;;;;5032427;28;20445;-50
2023/09/06 11:22:52;;;;;;;2.73;1.80;;;37.80;99.90;;;;;;5035777;28;20831;-51
2023/09/06 11:25:23;;;;;;;2.13;1.93;;;38.00;99.90;;;;;;5034401;28;20474;-51
2023/09/06 11:27:50;;;;;;;4.73;1.90;;;38.10;99.90;;;;;;5037535;28;20761;-51
2023/09/06 11:30:26;;;;;;;7.87;2.33;;;38.10;99.90;;;;;;5036067;28;20450;-51
2023/09/06 11:32:53;;;;;;;3.00;1.80;;;38.10;99.90;;;;;;5042187;28;20437;-51
2023/09/06 11:35:26;;;;;;;8.23;2.23;;;38.10;99.90;;;;;;5031502;28;20526;-50
2023/09/06 11:37:53;;;;;;;2.03;1.90;;;38.10;99.90;;;;;;5032943;28;20429;-50
2023/09/06 11:40:20;;;;;;;2.00;1.80;;;38.10;99.90;;;;;;5034315;28;20426;-50
2023/09/06 11:42:58;;;;;;;5.10;2.07;;;38.40;99.90;;;;;;5034366;28;20797;-52
2023/09/06 11:45:25;;;;;;;2.27;1.47;;;38.60;99.90;;;;;;5033357;28;20489;-51
2023/09/06 11:47:59;;;;;;;5.30;2.07;;;38.50;99.90;;;;;;5038472;28;20411;-49
2023/09/06 11:50:29;;;;;;;2.13;1.50;;;38.60;99.90;;;;;;5034154;28;21561;-53
2023/09/06 11:52:58;;;;;;;5.70;2.00;;;38.60;99.90;;;;;;5031880;28;20854;-52
2023/09/06 11:55:24;;;;;;;1.90;1.80;;;38.20;99.90;;;;;;5049144;28;20434;-51
2023/09/06 11:57:53;;;;;;;6.60;2.07;;;38.10;99.90;;;;;;5034702;28;20833;-52
2023/09/06 12:00:42;;;;;;;4.03;1.60;;;38.10;99.90;;;;;;5034498;28;20441;-52
2023/09/06 12:03:13;;;;;;;2.60;1.50;;;38.10;99.90;;;;;;5035068;28;20462;-52
2023/09/06 12:05:42;;;;;;;2.80;1.70;;;38.20;99.90;;;;;;5034660;28;22335;-52
2023/09/06 12:08:15;;;;;;;2.90;2.07;;;38.30;99.90;;;;;;5035225;28;20472;-52
2023/09/06 12:10:49;;;;;;;6.40;1.90;;;38.40;99.90;;;;;;5035257;28;20426;-52
2023/09/06 12:13:15;;;;;;;2.30;1.83;;;38.40;99.90;;;;;;5034743;28;20752;-51
2023/09/06 12:15:43;;;;;;;4.20;1.70;;;38.40;99.90;;;;;;5034702;28;20434;-51
2023/09/06 12:18:08;;;;;;;3.20;1.70;;;38.40;99.90;;;;;;5033027;28;20935;-51
2023/09/06 12:20:34;;;;;;;3.70;2.00;;;38.50;99.90;;;;;;5033177;28;20430;-51
2023/09/06 12:23:00;;;;;;;2.47;1.70;;;38.70;99.90;;;;;;5033202;28;20235;-52
2023/09/06 12:25:25;;;;;;;4.93;2.00;;;38.80;99.90;;;;;;5033164;28;20694;-50
2023/09/06 12:27:51;;;;;;;4.20;2.03;;;38.70;99.90;;;;;;5032371;28;20264;-51
2023/09/06 12:30:20;;;;;;;4.33;2.30;;;38.70;99.90;;;;;;5033686;28;20654;-51
2023/09/06 12:32:46;;;;;;;2.77;2.17;;;38.80;99.90;;;;;;5033970;28;20180;-51
2023/09/06 12:35:12;;;;;;;4.30;1.90;;;38.70;99.90;;;;;;5033720;28;20793;-51
2023/09/06 12:37:38;;;;;;;2.23;1.87;;;38.90;99.90;;;;;;5034316;28;20262;-52
2023/09/06 12:40:13;;;;;;;4.80;1.80;;;39.00;99.90;;;;;;5034194;28;20185;-52
2023/09/06 12:42:47;;;;;;;3.60;1.90;;;39.00;99.90;;;;;;5032785;28;20479;-51